sensor_id;sensor_type;location;lat;lon;timestamp;P1;durP1;ratioP1;P2;durP2;ratioP2
21326;SDS011;10822;51.532;6.770;2023-03-23T00:01:17;7.03;;;2.70;;
21326;SDS011;10822;51.532;6.770;2023-03-23T00:03:48;5.03;;;2.65;;
21326;SDS011;10822;51.532;6.770;2023-03-23T00:06:14;4.50;;;2.70;;
21326;SDS011;10822;51.532;6.770;2023-03-23T00:08:42;5.28;;;2.75;;
21326;SDS011;10822;51.532;6.770;2023-03-23T00:11:21;4.13;;;2.28;;
21326;SDS011;10822;51.532;6.770;2023-03-23T00:13:48;4.32;;;2.40;;
21326;SDS011;10822;51.532;6.770;2023-03-23T00:16:18;4.88;;;2.70;;
21326;SDS011;10822;51.532;6.770;2023-03-23T00:18:48;5.22;;;2.47;;
21326;SDS011;10822;51.532;6.770;2023-03-23T00:21:27;5.60;;;2.85;;
21326;SDS011;10822;51.532;6.770;2023-03-23T00:24:03;5.20;;;3.17;;
21326;SDS011;10822;51.532;6.770;2023-03-23T00:26:29;4.25;;;2.63;;
21326;SDS011;10822;51.532;6.770;2023-03-23T00:28:58;5.47;;;2.78;;
21326;SDS011;10822;51.532;6.770;2023-03-23T00:31:25;6.05;;;2.83;;
21326;SDS011;10822;51.532;6.770;2023-03-23T00:33:56;6.78;;;2.72;;
21326;SDS011;10822;51.532;6.770;2023-03-23T00:36:23;6.68;;;3.08;;
21326;SDS011;10822;51.532;6.770;2023-03-23T00:38:51;7.05;;;3.05;;
21326;SDS011;10822;51.532;6.770;2023-03-23T00:41:17;7.80;;;3.05;;
21326;SDS011;10822;51.532;6.770;2023-03-23T00:43:42;8.95;;;2.90;;
21326;SDS011;10822;51.532;6.770;2023-03-23T00:46:08;3.35;;;2.30;;
21326;SDS011;10822;51.532;6.770;2023-03-23T00:48:37;4.60;;;2.38;;
21326;SDS011;10822;51.532;6.770;2023-03-23T00:51:09;3.80;;;2.50;;
21326;SDS011;10822;51.532;6.770;2023-03-23T00:53:35;3.80;;;2.22;;
21326;SDS011;10822;51.532;6.770;2023-03-23T00:56:01;3.33;;;2.20;;
21326;SDS011;10822;51.532;6.770;2023-03-23T00:58:27;5.13;;;2.30;;
21326;SDS011;10822;51.532;6.770;2023-03-23T01:00:53;5.28;;;2.17;;
21326;SDS011;10822;51.532;6.770;2023-03-23T01:03:21;5.40;;;2.40;;
21326;SDS011;10822;51.532;6.770;2023-03-23T01:05:50;4.32;;;2.17;;
21326;SDS011;10822;51.532;6.770;2023-03-23T01:08:16;4.03;;;2.20;;
21326;SDS011;10822;51.532;6.770;2023-03-23T01:10:43;4.53;;;2.33;;
21326;SDS011;10822;51.532;6.770;2023-03-23T01:13:09;3.30;;;2.30;;
21326;SDS011;10822;51.532;6.770;2023-03-23T01:15:35;8.05;;;3.00;;
21326;SDS011;10822;51.532;6.770;2023-03-23T01:18:02;3.97;;;2.50;;
21326;SDS011;10822;51.532;6.770;2023-03-23T01:20:28;3.65;;;2.45;;
21326;SDS011;10822;51.532;6.770;2023-03-23T01:22:56;5.18;;;2.53;;
21326;SDS011;10822;51.532;6.770;2023-03-23T01:25:25;5.50;;;2.65;;
21326;SDS011;10822;51.532;6.770;2023-03-23T01:27:52;5.88;;;2.80;;
21326;SDS011;10822;51.532;6.770;2023-03-23T01:30:18;5.18;;;2.90;;
21326;SDS011;10822;51.532;6.770;2023-03-23T01:32:44;5.88;;;2.50;;
21326;SDS011;10822;51.532;6.770;2023-03-23T01:35:12;7.90;;;3.75;;
21326;SDS011;10822;51.532;6.770;2023-03-23T01:37:38;7.82;;;3.78;;
21326;SDS011;10822;51.532;6.770;2023-03-23T01:40:04;6.88;;;4.18;;
21326;SDS011;10822;51.532;6.770;2023-03-23T01:42:31;6.03;;;3.65;;
21326;SDS011;10822;51.532;6.770;2023-03-23T01:45:13;7.13;;;3.70;;
21326;SDS011;10822;51.532;6.770;2023-03-23T01:47:52;5.75;;;3.08;;
21326;SDS011;10822;51.532;6.770;2023-03-23T01:50:20;4.97;;;2.80;;
21326;SDS011;10822;51.532;6.770;2023-03-23T01:52:48;6.25;;;2.83;;
21326;SDS011;10822;51.532;6.770;2023-03-23T01:55:14;4.60;;;2.60;;
21326;SDS011;10822;51.532;6.770;2023-03-23T01:57:40;4.00;;;2.30;;
21326;SDS011;10822;51.532;6.770;2023-03-23T02:00:07;3.70;;;2.30;;
21326;SDS011;10822;51.532;6.770;2023-03-23T02:02:39;3.97;;;2.38;;
21326;SDS011;10822;51.532;6.770;2023-03-23T02:05:07;3.33;;;2.10;;
21326;SDS011;10822;51.532;6.770;2023-03-23T02:07:34;6.32;;;2.58;;
21326;SDS011;10822;51.532;6.770;2023-03-23T02:10:00;5.63;;;2.40;;
21326;SDS011;10822;51.532;6.770;2023-03-23T02:12:26;4.88;;;2.08;;
21326;SDS011;10822;51.532;6.770;2023-03-23T02:14:52;3.75;;;2.30;;
21326;SDS011;10822;51.532;6.770;2023-03-23T02:17:24;3.55;;;2.17;;
21326;SDS011;10822;51.532;6.770;2023-03-23T02:36:20;3.65;;;2.20;;
21326;SDS011;10822;51.532;6.770;2023-03-23T02:38:21;4.78;;;2.60;;
21326;SDS011;10822;51.532;6.770;2023-03-23T02:40:48;4.57;;;2.75;;
21326;SDS011;10822;51.532;6.770;2023-03-23T02:43:16;6.65;;;2.47;;
21326;SDS011;10822;51.532;6.770;2023-03-23T02:45:44;7.53;;;4.00;;
21326;SDS011;10822;51.532;6.770;2023-03-23T02:48:10;4.50;;;2.80;;
21326;SDS011;10822;51.532;6.770;2023-03-23T02:50:38;7.85;;;3.40;;
21326;SDS011;10822;51.532;6.770;2023-03-23T02:53:07;7.32;;;3.65;;
21326;SDS011;10822;51.532;6.770;2023-03-23T02:55:34;6.20;;;3.30;;
21326;SDS011;10822;51.532;6.770;2023-03-23T02:58:01;6.10;;;3.13;;
21326;SDS011;10822;51.532;6.770;2023-03-23T03:00:28;5.60;;;3.47;;
21326;SDS011;10822;51.532;6.770;2023-03-23T03:02:55;4.45;;;3.00;;
21326;SDS011;10822;51.532;6.770;2023-03-23T03:10:42;7.32;;;3.55;;
21326;SDS011;10822;51.532;6.770;2023-03-23T03:15:37;4.13;;;2.75;;
21326;SDS011;10822;51.532;6.770;2023-03-23T03:18:08;7.25;;;3.20;;
21326;SDS011;10822;51.532;6.770;2023-03-23T03:20:37;5.60;;;2.70;;
21326;SDS011;10822;51.532;6.770;2023-03-23T03:23:04;5.18;;;2.80;;
21326;SDS011;10822;51.532;6.770;2023-03-23T03:25:32;5.88;;;3.00;;
21326;SDS011;10822;51.532;6.770;2023-03-23T03:27:58;5.15;;;3.00;;
21326;SDS011;10822;51.532;6.770;2023-03-23T03:30:26;4.50;;;2.83;;
21326;SDS011;10822;51.532;6.770;2023-03-23T03:32:56;5.47;;;3.10;;
21326;SDS011;10822;51.532;6.770;2023-03-23T03:35:25;6.07;;;3.17;;
21326;SDS011;10822;51.532;6.770;2023-03-23T03:37:51;4.45;;;2.60;;
21326;SDS011;10822;51.532;6.770;2023-03-23T03:40:19;4.20;;;2.70;;
21326;SDS011;10822;51.532;6.770;2023-03-23T03:42:45;4.07;;;2.95;;
21326;SDS011;10822;51.532;6.770;2023-03-23T03:45:14;5.40;;;2.80;;
21326;SDS011;10822;51.532;6.770;2023-03-23T03:47:40;6.03;;;2.60;;
21326;SDS011;10822;51.532;6.770;2023-03-23T03:50:06;3.97;;;2.35;;
21326;SDS011;10822;51.532;6.770;2023-03-23T03:52:33;5.75;;;2.60;;
21326;SDS011;10822;51.532;6.770;2023-03-23T03:54:59;3.78;;;2.28;;
21326;SDS011;10822;51.532;6.770;2023-03-23T03:57:25;4.88;;;2.25;;
21326;SDS011;10822;51.532;6.770;2023-03-23T03:59:52;3.55;;;1.88;;
21326;SDS011;10822;51.532;6.770;2023-03-23T04:02:18;3.85;;;2.22;;
21326;SDS011;10822;51.532;6.770;2023-03-23T04:04:48;4.00;;;2.72;;
21326;SDS011;10822;51.532;6.770;2023-03-23T04:07:16;3.63;;;2.33;;
21326;SDS011;10822;51.532;6.770;2023-03-23T04:09:43;2.78;;;1.95;;
21326;SDS011;10822;51.532;6.770;2023-03-23T04:12:11;3.17;;;1.75;;
21326;SDS011;10822;51.532;6.770;2023-03-23T04:14:37;2.85;;;1.88;;
21326;SDS011;10822;51.532;6.770;2023-03-23T04:17:03;3.30;;;2.05;;
21326;SDS011;10822;51.532;6.770;2023-03-23T04:19:29;4.45;;;2.10;;
21326;SDS011;10822;51.532;6.770;2023-03-23T04:21:57;2.40;;;1.85;;
21326;SDS011;10822;51.532;6.770;2023-03-23T04:24:23;2.67;;;1.70;;
21326;SDS011;10822;51.532;6.770;2023-03-23T04:26:49;3.38;;;2.20;;
21326;SDS011;10822;51.532;6.770;2023-03-23T04:29:19;3.17;;;2.10;;
21326;SDS011;10822;51.532;6.770;2023-03-23T04:31:45;4.63;;;1.90;;
21326;SDS011;10822;51.532;6.770;2023-03-23T04:34:11;2.80;;;2.10;;
21326;SDS011;10822;51.532;6.770;2023-03-23T04:36:40;3.40;;;2.00;;
21326;SDS011;10822;51.532;6.770;2023-03-23T04:39:07;3.85;;;2.10;;
21326;SDS011;10822;51.532;6.770;2023-03-23T04:41:35;4.70;;;2.70;;
21326;SDS011;10822;51.532;6.770;2023-03-23T04:44:01;2.92;;;2.10;;
21326;SDS011;10822;51.532;6.770;2023-03-23T04:46:27;3.58;;;2.20;;
21326;SDS011;10822;51.532;6.770;2023-03-23T04:48:54;4.68;;;2.65;;
21326;SDS011;10822;51.532;6.770;2023-03-23T04:51:20;3.47;;;2.20;;
21326;SDS011;10822;51.532;6.770;2023-03-23T04:53:46;2.90;;;2.00;;
21326;SDS011;10822;51.532;6.770;2023-03-23T04:56:12;5.65;;;2.60;;
21326;SDS011;10822;51.532;6.770;2023-03-23T04:58:41;3.95;;;2.70;;
21326;SDS011;10822;51.532;6.770;2023-03-23T05:01:08;6.00;;;3.00;;
21326;SDS011;10822;51.532;6.770;2023-03-23T05:03:34;4.07;;;2.53;;
21326;SDS011;10822;51.532;6.770;2023-03-23T05:06:01;5.05;;;2.20;;
21326;SDS011;10822;51.532;6.770;2023-03-23T05:08:27;5.47;;;2.50;;
21326;SDS011;10822;51.532;6.770;2023-03-23T05:10:55;3.28;;;2.17;;
21326;SDS011;10822;51.532;6.770;2023-03-23T05:13:21;4.90;;;1.98;;
21326;SDS011;10822;51.532;6.770;2023-03-23T05:15:47;5.20;;;2.40;;
21326;SDS011;10822;51.532;6.770;2023-03-23T05:18:13;3.38;;;2.28;;
21326;SDS011;10822;51.532;6.770;2023-03-23T05:20:40;4.15;;;2.00;;
21326;SDS011;10822;51.532;6.770;2023-03-23T05:23:12;3.10;;;1.80;;
21326;SDS011;10822;51.532;6.770;2023-03-23T05:25:38;3.53;;;1.85;;
21326;SDS011;10822;51.532;6.770;2023-03-23T05:28:08;4.30;;;2.33;;
21326;SDS011;10822;51.532;6.770;2023-03-23T05:30:35;2.83;;;2.05;;
21326;SDS011;10822;51.532;6.770;2023-03-23T05:33:01;4.60;;;2.00;;
21326;SDS011;10822;51.532;6.770;2023-03-23T05:35:28;2.58;;;1.90;;
21326;SDS011;10822;51.532;6.770;2023-03-23T05:37:54;4.13;;;2.28;;
21326;SDS011;10822;51.532;6.770;2023-03-23T05:40:22;3.90;;;2.45;;
21326;SDS011;10822;51.532;6.770;2023-03-23T05:42:50;4.03;;;1.90;;
21326;SDS011;10822;51.532;6.770;2023-03-23T05:45:16;4.38;;;2.20;;
21326;SDS011;10822;51.532;6.770;2023-03-23T05:47:43;3.20;;;2.10;;
21326;SDS011;10822;51.532;6.770;2023-03-23T05:50:09;3.80;;;2.40;;
21326;SDS011;10822;51.532;6.770;2023-03-23T05:52:35;7.10;;;2.60;;
21326;SDS011;10822;51.532;6.770;2023-03-23T05:55:02;3.33;;;2.30;;
21326;SDS011;10822;51.532;6.770;2023-03-23T05:57:28;5.43;;;2.80;;
21326;SDS011;10822;51.532;6.770;2023-03-23T05:59:54;3.90;;;2.33;;
21326;SDS011;10822;51.532;6.770;2023-03-23T06:02:22;5.32;;;2.13;;
21326;SDS011;10822;51.532;6.770;2023-03-23T06:04:49;4.35;;;2.15;;
21326;SDS011;10822;51.532;6.770;2023-03-23T06:07:15;5.22;;;2.00;;
21326;SDS011;10822;51.532;6.770;2023-03-23T06:09:41;5.35;;;2.50;;
21326;SDS011;10822;51.532;6.770;2023-03-23T06:12:07;5.15;;;2.20;;
21326;SDS011;10822;51.532;6.770;2023-03-23T06:14:34;4.03;;;2.40;;
21326;SDS011;10822;51.532;6.770;2023-03-23T06:17:00;7.82;;;2.30;;
21326;SDS011;10822;51.532;6.770;2023-03-23T06:19:26;4.18;;;2.33;;
21326;SDS011;10822;51.532;6.770;2023-03-23T06:21:54;4.95;;;2.10;;
21326;SDS011;10822;51.532;6.770;2023-03-23T06:24:20;6.60;;;2.88;;
21326;SDS011;10822;51.532;6.770;2023-03-23T06:26:46;4.65;;;2.10;;
21326;SDS011;10822;51.532;6.770;2023-03-23T06:29:13;6.60;;;2.50;;
21326;SDS011;10822;51.532;6.770;2023-03-23T06:31:40;6.50;;;2.42;;
21326;SDS011;10822;51.532;6.770;2023-03-23T06:34:07;4.15;;;2.30;;
21326;SDS011;10822;51.532;6.770;2023-03-23T06:36:34;5.03;;;2.08;;
21326;SDS011;10822;51.532;6.770;2023-03-23T06:38:59;5.18;;;2.60;;
21326;SDS011;10822;51.532;6.770;2023-03-23T06:41:26;4.75;;;2.00;;
21326;SDS011;10822;51.532;6.770;2023-03-23T06:43:52;5.55;;;2.47;;
21326;SDS011;10822;51.532;6.770;2023-03-23T06:46:18;4.03;;;2.63;;
21326;SDS011;10822;51.532;6.770;2023-03-23T06:48:44;5.88;;;2.20;;
21326;SDS011;10822;51.532;6.770;2023-03-23T06:51:14;6.00;;;2.10;;
21326;SDS011;10822;51.532;6.770;2023-03-23T06:53:40;4.15;;;2.55;;
21326;SDS011;10822;51.532;6.770;2023-03-23T06:56:06;3.55;;;2.08;;
21326;SDS011;10822;51.532;6.770;2023-03-23T06:58:32;3.97;;;2.30;;
21326;SDS011;10822;51.532;6.770;2023-03-23T07:00:58;4.85;;;2.38;;
21326;SDS011;10822;51.532;6.770;2023-03-23T07:03:26;7.25;;;2.80;;
21326;SDS011;10822;51.532;6.770;2023-03-23T07:05:53;4.75;;;2.78;;
21326;SDS011;10822;51.532;6.770;2023-03-23T07:08:19;5.40;;;2.25;;
21326;SDS011;10822;51.532;6.770;2023-03-23T07:10:45;6.40;;;2.10;;
21326;SDS011;10822;51.532;6.770;2023-03-23T07:13:11;5.57;;;2.42;;
21326;SDS011;10822;51.532;6.770;2023-03-23T07:15:38;8.65;;;2.80;;
21326;SDS011;10822;51.532;6.770;2023-03-23T07:18:04;6.40;;;2.50;;
21326;SDS011;10822;51.532;6.770;2023-03-23T07:20:30;8.00;;;2.58;;
21326;SDS011;10822;51.532;6.770;2023-03-23T07:22:57;8.30;;;2.50;;
21326;SDS011;10822;51.532;6.770;2023-03-23T07:25:23;4.57;;;2.00;;
21326;SDS011;10822;51.532;6.770;2023-03-23T07:27:49;8.20;;;2.00;;
21326;SDS011;10822;51.532;6.770;2023-03-23T07:30:15;5.93;;;2.17;;
21326;SDS011;10822;51.532;6.770;2023-03-23T07:32:41;4.70;;;2.33;;
21326;SDS011;10822;51.532;6.770;2023-03-23T07:35:08;8.27;;;2.25;;
21326;SDS011;10822;51.532;6.770;2023-03-23T07:37:34;4.70;;;1.80;;
21326;SDS011;10822;51.532;6.770;2023-03-23T07:40:00;6.72;;;2.63;;
21326;SDS011;10822;51.532;6.770;2023-03-23T07:42:39;4.20;;;1.95;;
21326;SDS011;10822;51.532;6.770;2023-03-23T07:45:05;5.35;;;2.50;;
21326;SDS011;10822;51.532;6.770;2023-03-23T07:47:31;2.45;;;1.50;;
21326;SDS011;10822;51.532;6.770;2023-03-23T07:49:57;6.70;;;2.03;;
21326;SDS011;10822;51.532;6.770;2023-03-23T07:52:23;4.55;;;1.90;;
21326;SDS011;10822;51.532;6.770;2023-03-23T07:54:49;5.30;;;1.90;;
21326;SDS011;10822;51.532;6.770;2023-03-23T07:57:15;4.45;;;2.10;;
21326;SDS011;10822;51.532;6.770;2023-03-23T07:59:41;6.25;;;1.50;;
21326;SDS011;10822;51.532;6.770;2023-03-23T08:02:08;6.70;;;2.13;;
21326;SDS011;10822;51.532;6.770;2023-03-23T08:04:35;6.20;;;1.80;;
21326;SDS011;10822;51.532;6.770;2023-03-23T08:07:02;4.00;;;1.88;;
21326;SDS011;10822;51.532;6.770;2023-03-23T08:09:29;7.90;;;1.80;;
21326;SDS011;10822;51.532;6.770;2023-03-23T08:11:55;4.03;;;1.80;;
21326;SDS011;10822;51.532;6.770;2023-03-23T08:14:22;4.05;;;1.70;;
21326;SDS011;10822;51.532;6.770;2023-03-23T08:16:51;6.00;;;2.00;;
21326;SDS011;10822;51.532;6.770;2023-03-23T08:19:17;6.18;;;2.13;;
21326;SDS011;10822;51.532;6.770;2023-03-23T08:21:43;4.93;;;2.30;;
21326;SDS011;10822;51.532;6.770;2023-03-23T08:24:09;6.05;;;1.90;;
21326;SDS011;10822;51.532;6.770;2023-03-23T08:26:36;7.82;;;1.83;;
21326;SDS011;10822;51.532;6.770;2023-03-23T08:29:03;4.60;;;2.20;;
21326;SDS011;10822;51.532;6.770;2023-03-23T08:31:29;3.85;;;1.67;;
21326;SDS011;10822;51.532;6.770;2023-03-23T08:33:55;4.43;;;1.92;;
21326;SDS011;10822;51.532;6.770;2023-03-23T08:36:22;7.53;;;2.72;;
21326;SDS011;10822;51.532;6.770;2023-03-23T08:38:48;4.10;;;2.00;;
21326;SDS011;10822;51.532;6.770;2023-03-23T08:41:16;5.85;;;2.08;;
21326;SDS011;10822;51.532;6.770;2023-03-23T08:43:42;4.70;;;1.98;;
21326;SDS011;10822;51.532;6.770;2023-03-23T08:46:08;5.15;;;1.80;;
21326;SDS011;10822;51.532;6.770;2023-03-23T08:48:36;7.28;;;2.10;;
21326;SDS011;10822;51.532;6.770;2023-03-23T08:51:03;6.15;;;2.15;;
21326;SDS011;10822;51.532;6.770;2023-03-23T08:53:30;6.00;;;2.20;;
21326;SDS011;10822;51.532;6.770;2023-03-23T08:55:56;5.28;;;1.98;;
21326;SDS011;10822;51.532;6.770;2023-03-23T08:58:27;5.20;;;2.20;;
21326;SDS011;10822;51.532;6.770;2023-03-23T09:00:54;10.73;;;2.70;;
21326;SDS011;10822;51.532;6.770;2023-03-23T09:03:20;9.55;;;2.75;;
21326;SDS011;10822;51.532;6.770;2023-03-23T09:05:46;6.55;;;2.15;;
21326;SDS011;10822;51.532;6.770;2023-03-23T09:08:12;5.97;;;2.08;;
21326;SDS011;10822;51.532;6.770;2023-03-23T09:10:38;5.85;;;1.70;;
21326;SDS011;10822;51.532;6.770;2023-03-23T09:13:04;7.90;;;2.20;;
21326;SDS011;10822;51.532;6.770;2023-03-23T09:15:31;8.10;;;2.72;;
21326;SDS011;10822;51.532;6.770;2023-03-23T09:17:57;7.53;;;2.42;;
21326;SDS011;10822;51.532;6.770;2023-03-23T09:20:24;7.05;;;1.17;;
21326;SDS011;10822;51.532;6.770;2023-03-23T09:22:52;5.45;;;0.90;;
21326;SDS011;10822;51.532;6.770;2023-03-23T09:25:19;4.25;;;0.98;;
21326;SDS011;10822;51.532;6.770;2023-03-23T09:27:47;5.93;;;1.30;;
21326;SDS011;10822;51.532;6.770;2023-03-23T09:30:17;3.95;;;1.02;;
21326;SDS011;10822;51.532;6.770;2023-03-23T09:32:44;3.85;;;0.82;;
21326;SDS011;10822;51.532;6.770;2023-03-23T09:35:10;3.85;;;1.45;;
21326;SDS011;10822;51.532;6.770;2023-03-23T09:37:39;3.22;;;1.25;;
21326;SDS011;10822;51.532;6.770;2023-03-23T09:40:07;3.42;;;1.13;;
21326;SDS011;10822;51.532;6.770;2023-03-23T09:45:25;4.55;;;1.10;;
21326;SDS011;10822;51.532;6.770;2023-03-23T09:48:04;4.55;;;1.65;;
21326;SDS011;10822;51.532;6.770;2023-03-23T09:50:32;5.65;;;1.50;;
21326;SDS011;10822;51.532;6.770;2023-03-23T09:55:37;4.18;;;1.40;;
21326;SDS011;10822;51.532;6.770;2023-03-23T10:00:36;3.17;;;1.40;;
21326;SDS011;10822;51.532;6.770;2023-03-23T10:03:20;4.07;;;1.00;;
21326;SDS011;10822;51.532;6.770;2023-03-23T10:08:13;3.05;;;1.30;;
21326;SDS011;10822;51.532;6.770;2023-03-23T10:10:48;4.47;;;1.40;;
21326;SDS011;10822;51.532;6.770;2023-03-23T10:15:41;2.75;;;0.90;;
21326;SDS011;10822;51.532;6.770;2023-03-23T10:20:55;9.68;;;1.42;;
21326;SDS011;10822;51.532;6.770;2023-03-23T10:28:44;4.65;;;0.80;;
21326;SDS011;10822;51.532;6.770;2023-03-23T10:31:17;2.47;;;0.70;;
21326;SDS011;10822;51.532;6.770;2023-03-23T10:33:45;2.60;;;0.73;;
21326;SDS011;10822;51.532;6.770;2023-03-23T10:36:13;4.30;;;0.80;;
21326;SDS011;10822;51.532;6.770;2023-03-23T10:38:53;2.65;;;0.75;;
21326;SDS011;10822;51.532;6.770;2023-03-23T10:41:22;2.60;;;0.98;;
21326;SDS011;10822;51.532;6.770;2023-03-23T10:43:48;2.92;;;1.00;;
21326;SDS011;10822;51.532;6.770;2023-03-23T10:49:01;3.65;;;1.17;;
21326;SDS011;10822;51.532;6.770;2023-03-23T10:51:35;3.58;;;1.38;;
21326;SDS011;10822;51.532;6.770;2023-03-23T10:54:02;4.78;;;1.17;;
21326;SDS011;10822;51.532;6.770;2023-03-23T10:56:34;4.35;;;1.23;;
21326;SDS011;10822;51.532;6.770;2023-03-23T10:59:11;3.15;;;1.00;;
21326;SDS011;10822;51.532;6.770;2023-03-23T11:01:37;2.22;;;0.88;;
21326;SDS011;10822;51.532;6.770;2023-03-23T11:04:03;1.90;;;0.85;;
21326;SDS011;10822;51.532;6.770;2023-03-23T11:06:36;1.50;;;0.93;;
21326;SDS011;10822;51.532;6.770;2023-03-23T11:09:17;3.40;;;0.95;;
21326;SDS011;10822;51.532;6.770;2023-03-23T11:11:48;4.57;;;1.58;;
21326;SDS011;10822;51.532;6.770;2023-03-23T11:14:16;3.58;;;1.67;;
21326;SDS011;10822;51.532;6.770;2023-03-23T11:16:50;5.05;;;1.45;;
21326;SDS011;10822;51.532;6.770;2023-03-23T11:19:22;5.50;;;1.83;;
21326;SDS011;10822;51.532;6.770;2023-03-23T11:21:49;6.15;;;1.77;;
21326;SDS011;10822;51.532;6.770;2023-03-23T11:24:16;4.88;;;1.42;;
21326;SDS011;10822;51.532;6.770;2023-03-23T11:26:43;6.45;;;1.77;;
21326;SDS011;10822;51.532;6.770;2023-03-23T11:31:36;3.13;;;1.70;;
21326;SDS011;10822;51.532;6.770;2023-03-23T11:34:08;7.35;;;1.98;;
21326;SDS011;10822;51.532;6.770;2023-03-23T11:36:37;2.50;;;1.45;;
21326;SDS011;10822;51.532;6.770;2023-03-23T11:41:48;5.18;;;1.70;;
21326;SDS011;10822;51.532;6.770;2023-03-23T11:44:14;5.40;;;2.00;;
21326;SDS011;10822;51.532;6.770;2023-03-23T11:49:15;3.83;;;2.08;;
21326;SDS011;10822;51.532;6.770;2023-03-23T11:51:48;5.28;;;1.48;;
21326;SDS011;10822;51.532;6.770;2023-03-23T11:54:19;4.07;;;1.65;;
21326;SDS011;10822;51.532;6.770;2023-03-23T11:56:47;4.65;;;2.22;;
21326;SDS011;10822;51.532;6.770;2023-03-23T11:59:19;5.18;;;2.30;;
21326;SDS011;10822;51.532;6.770;2023-03-23T12:02:01;4.15;;;2.47;;
21326;SDS011;10822;51.532;6.770;2023-03-23T12:11:58;3.85;;;1.77;;
21326;SDS011;10822;51.532;6.770;2023-03-23T12:14:32;4.93;;;1.70;;
21326;SDS011;10822;51.532;6.770;2023-03-23T12:19:37;2.72;;;1.75;;
21326;SDS011;10822;51.532;6.770;2023-03-23T12:22:19;8.30;;;2.40;;
21326;SDS011;10822;51.532;6.770;2023-03-23T12:25:05;5.97;;;2.30;;
21326;SDS011;10822;51.532;6.770;2023-03-23T12:35:28;5.45;;;1.55;;
21326;SDS011;10822;51.532;6.770;2023-03-23T12:38:03;3.72;;;1.63;;
21326;SDS011;10822;51.532;6.770;2023-03-23T12:40:36;2.03;;;1.20;;
21326;SDS011;10822;51.532;6.770;2023-03-23T12:43:13;4.90;;;2.15;;
21326;SDS011;10822;51.532;6.770;2023-03-23T12:45:53;4.03;;;1.90;;
21326;SDS011;10822;51.532;6.770;2023-03-23T12:48:25;8.13;;;3.55;;
21326;SDS011;10822;51.532;6.770;2023-03-23T12:53:50;5.50;;;2.72;;
21326;SDS011;10822;51.532;6.770;2023-03-23T13:01:47;5.72;;;1.90;;
21326;SDS011;10822;51.532;6.770;2023-03-23T13:04:16;3.92;;;1.85;;
21326;SDS011;10822;51.532;6.770;2023-03-23T13:06:44;4.20;;;1.83;;
21326;SDS011;10822;51.532;6.770;2023-03-23T13:11:43;4.07;;;1.50;;
21326;SDS011;10822;51.532;6.770;2023-03-23T13:17:03;3.03;;;1.77;;
21326;SDS011;10822;51.532;6.770;2023-03-23T13:22:11;5.15;;;2.22;;
21326;SDS011;10822;51.532;6.770;2023-03-23T13:24:41;6.53;;;2.35;;
21326;SDS011;10822;51.532;6.770;2023-03-23T13:27:08;7.20;;;2.03;;
21326;SDS011;10822;51.532;6.770;2023-03-23T13:29:43;6.63;;;2.47;;
21326;SDS011;10822;51.532;6.770;2023-03-23T13:32:11;5.03;;;2.05;;
21326;SDS011;10822;51.532;6.770;2023-03-23T13:34:38;7.18;;;1.95;;
21326;SDS011;10822;51.532;6.770;2023-03-23T13:37:06;4.18;;;1.95;;
21326;SDS011;10822;51.532;6.770;2023-03-23T13:39:56;3.17;;;1.67;;
21326;SDS011;10822;51.532;6.770;2023-03-23T13:42:23;5.15;;;1.95;;
21326;SDS011;10822;51.532;6.770;2023-03-23T13:52:23;4.80;;;2.20;;
21326;SDS011;10822;51.532;6.770;2023-03-23T13:54:49;5.45;;;1.80;;
21326;SDS011;10822;51.532;6.770;2023-03-23T13:57:20;5.53;;;1.90;;
21326;SDS011;10822;51.532;6.770;2023-03-23T13:59:47;3.20;;;1.92;;
21326;SDS011;10822;51.532;6.770;2023-03-23T14:04:52;4.18;;;1.83;;
21326;SDS011;10822;51.532;6.770;2023-03-23T14:07:18;6.07;;;2.75;;
21326;SDS011;10822;51.532;6.770;2023-03-23T14:09:44;8.15;;;2.70;;
21326;SDS011;10822;51.532;6.770;2023-03-23T14:12:18;6.97;;;3.30;;
21326;SDS011;10822;51.532;6.770;2023-03-23T14:14:46;5.10;;;3.25;;
21326;SDS011;10822;51.532;6.770;2023-03-23T14:17:22;6.53;;;2.40;;
21326;SDS011;10822;51.532;6.770;2023-03-23T14:19:49;4.97;;;2.50;;
21326;SDS011;10822;51.532;6.770;2023-03-23T14:22:22;5.50;;;2.20;;
21326;SDS011;10822;51.532;6.770;2023-03-23T14:24:48;3.63;;;2.05;;
21326;SDS011;10822;51.532;6.770;2023-03-23T14:27:17;10.40;;;2.78;;
21326;SDS011;10822;51.532;6.770;2023-03-23T14:29:43;6.75;;;2.50;;
21326;SDS011;10822;51.532;6.770;2023-03-23T14:32:16;6.75;;;1.95;;
21326;SDS011;10822;51.532;6.770;2023-03-23T14:34:43;7.57;;;2.30;;
21326;SDS011;10822;51.532;6.770;2023-03-23T14:37:12;7.40;;;2.00;;
21326;SDS011;10822;51.532;6.770;2023-03-23T14:39:39;4.20;;;1.85;;
21326;SDS011;10822;51.532;6.770;2023-03-23T14:42:09;3.35;;;1.70;;
21326;SDS011;10822;51.532;6.770;2023-03-23T14:44:37;3.60;;;1.88;;
21326;SDS011;10822;51.532;6.770;2023-03-23T14:47:06;5.55;;;2.50;;
21326;SDS011;10822;51.532;6.770;2023-03-23T14:49:39;5.85;;;2.22;;
21326;SDS011;10822;51.532;6.770;2023-03-23T14:52:10;4.65;;;2.38;;
21326;SDS011;10822;51.532;6.770;2023-03-23T14:54:37;5.15;;;2.60;;
21326;SDS011;10822;51.532;6.770;2023-03-23T14:57:16;4.47;;;2.28;;
21326;SDS011;10822;51.532;6.770;2023-03-23T14:59:43;6.03;;;2.85;;
21326;SDS011;10822;51.532;6.770;2023-03-23T15:02:11;5.38;;;2.25;;
21326;SDS011;10822;51.532;6.770;2023-03-23T15:04:38;5.03;;;2.08;;
21326;SDS011;10822;51.532;6.770;2023-03-23T15:07:04;4.55;;;2.17;;
21326;SDS011;10822;51.532;6.770;2023-03-23T15:09:31;6.55;;;2.58;;
21326;SDS011;10822;51.532;6.770;2023-03-23T15:11:59;3.53;;;1.90;;
21326;SDS011;10822;51.532;6.770;2023-03-23T15:17:23;3.92;;;1.60;;
21326;SDS011;10822;51.532;6.770;2023-03-23T15:19:50;3.10;;;1.52;;
21326;SDS011;10822;51.532;6.770;2023-03-23T15:24:45;5.80;;;1.83;;
21326;SDS011;10822;51.532;6.770;2023-03-23T15:27:15;4.07;;;2.10;;
21326;SDS011;10822;51.532;6.770;2023-03-23T15:29:48;2.55;;;1.33;;
21326;SDS011;10822;51.532;6.770;2023-03-23T15:32:19;3.42;;;1.90;;
21326;SDS011;10822;51.532;6.770;2023-03-23T15:34:46;8.10;;;2.30;;
21326;SDS011;10822;51.532;6.770;2023-03-23T15:37:19;7.85;;;1.70;;
21326;SDS011;10822;51.532;6.770;2023-03-23T15:39:45;4.30;;;1.50;;
21326;SDS011;10822;51.532;6.770;2023-03-23T15:42:21;4.72;;;1.50;;
21326;SDS011;10822;51.532;6.770;2023-03-23T15:44:54;5.25;;;2.00;;
21326;SDS011;10822;51.532;6.770;2023-03-23T15:47:20;5.13;;;2.33;;
21326;SDS011;10822;51.532;6.770;2023-03-23T15:49:47;4.50;;;1.55;;
21326;SDS011;10822;51.532;6.770;2023-03-23T15:52:24;7.10;;;1.77;;
21326;SDS011;10822;51.532;6.770;2023-03-23T15:54:50;3.58;;;1.50;;
21326;SDS011;10822;51.532;6.770;2023-03-23T15:57:16;5.35;;;1.50;;
21326;SDS011;10822;51.532;6.770;2023-03-23T15:59:42;6.68;;;1.75;;
21326;SDS011;10822;51.532;6.770;2023-03-23T16:02:12;4.32;;;2.00;;
21326;SDS011;10822;51.532;6.770;2023-03-23T16:07:07;6.82;;;1.40;;
21326;SDS011;10822;51.532;6.770;2023-03-23T16:09:37;4.53;;;1.95;;
21326;SDS011;10822;51.532;6.770;2023-03-23T16:12:08;9.02;;;2.58;;
21326;SDS011;10822;51.532;6.770;2023-03-23T16:14:35;9.10;;;2.30;;
21326;SDS011;10822;51.532;6.770;2023-03-23T16:17:01;4.85;;;1.88;;
21326;SDS011;10822;51.532;6.770;2023-03-23T16:19:27;7.30;;;2.10;;
21326;SDS011;10822;51.532;6.770;2023-03-23T16:21:53;4.55;;;1.95;;
21326;SDS011;10822;51.532;6.770;2023-03-23T16:24:19;6.43;;;1.83;;
21326;SDS011;10822;51.532;6.770;2023-03-23T16:26:45;5.15;;;1.95;;
21326;SDS011;10822;51.532;6.770;2023-03-23T16:29:12;6.20;;;2.03;;
21326;SDS011;10822;51.532;6.770;2023-03-23T16:31:39;7.82;;;1.98;;
21326;SDS011;10822;51.532;6.770;2023-03-23T16:34:07;4.28;;;1.67;;
21326;SDS011;10822;51.532;6.770;2023-03-23T16:36:33;7.93;;;1.80;;
21326;SDS011;10822;51.532;6.770;2023-03-23T16:39:00;5.82;;;2.10;;
21326;SDS011;10822;51.532;6.770;2023-03-23T16:41:26;6.35;;;1.92;;